Time;durP1;ratioP1;P1;durP2;ratioP2;P2;SDS_P1;SDS_P2;PMS_P1;PMS_P2;Temp;Humidity;BMP_temperature;BMP_pressure;BME280_temperature;BME280_humidity;BME280_pressure;Samples;Min_cycle;Max_cycle;Signal;HPM_P1;HPM_P2
2023/03/19 05:50:06;;;;;;;9.73;4.07;;;;;;;;;;6303444;22;20027;-62
2023/03/19 05:52:32;;;;;;;9.38;4.80;;;;;;;;;;6306010;22;20011;-62
2023/03/19 05:54:59;;;;;;;9.23;4.25;;;;;;;;;;6305505;22;20030;-62
2023/03/19 05:57:25;;;;;;;7.75;4.20;;;;;;;;;;6305851;22;19999;-66
2023/03/19 05:59:51;;;;;;;8.93;4.70;;;;;;;;;;6305851;22;20024;-62
2023/03/19 06:02:17;;;;;;;9.20;4.45;;;;;;;;;;6305896;22;20003;-62
2023/03/19 06:04:43;;;;;;;8.82;4.20;;;;;;;;;;6277467;22;20360;-65
2023/03/19 06:07:09;;;;;;;9.00;4.55;;;;;;;;;;6305541;22;20068;-62
2023/03/19 06:09:35;;;;;;;8.63;4.95;;;;;;;;;;6305992;22;19999;-65
2023/03/19 06:12:02;;;;;;;9.50;4.75;;;;;;;;;;6304019;22;20007;-62
2023/03/19 06:14:28;;;;;;;7.82;4.57;;;;;;;;;;6305589;22;20015;-62
2023/03/19 06:16:55;;;;;;;7.22;4.35;;;;;;;;;;6304679;22;20315;-63
2023/03/19 06:19:21;;;;;;;8.50;4.93;;;;;;;;;;6305211;22;20373;-64
2023/03/19 06:21:47;;;;;;;11.25;4.90;;;;;;;;;;6305987;22;20027;-63
2023/03/19 06:24:13;;;;;;;8.98;4.95;;;;;;;;;;6305309;22;20343;-63
2023/03/19 06:26:39;;;;;;;10.85;5.40;;;;;;;;;;6305468;22;19999;-63
2023/03/19 06:29:06;;;;;;;11.88;6.05;;;;;;;;;;6305854;22;20381;-62
2023/03/19 06:31:32;;;;;;;11.48;5.50;;;;;;;;;;6305008;22;20000;-62
2023/03/19 06:33:58;;;;;;;13.13;6.93;;;;;;;;;;6304443;22;20015;-62
2023/03/19 06:36:25;;;;;;;10.23;5.38;;;;;;;;;;6304515;22;20026;-62
2023/03/19 06:38:51;;;;;;;11.18;5.75;;;;;;;;;;6304499;22;20053;-63
2023/03/19 06:41:17;;;;;;;9.85;5.40;;;;;;;;;;6302919;22;20011;-63
2023/03/19 06:43:43;;;;;;;10.98;5.25;;;;;;;;;;6302185;22;20312;-64
2023/03/19 06:46:09;;;;;;;9.75;4.85;;;;;;;;;;6302575;22;20014;-68
2023/03/19 06:48:35;;;;;;;8.73;4.95;;;;;;;;;;6303541;22;20094;-63
2023/03/19 06:51:01;;;;;;;9.70;5.20;;;;;;;;;;6304799;22;20003;-62
2023/03/19 06:53:28;;;;;;;9.98;4.90;;;;;;;;;;6304702;22;20011;-62
2023/03/19 06:55:54;;;;;;;9.32;4.50;;;;;;;;;;6304646;22;20362;-66
2023/03/19 06:58:20;;;;;;;8.50;4.85;;;;;;;;;;6304999;22;20373;-67
2023/03/19 07:00:47;;;;;;;9.38;4.40;;;;;;;;;;6304945;22;20003;-68
2023/03/19 07:03:13;;;;;;;7.07;4.22;;;;;;;;;;6304532;22;20003;-62
2023/03/19 07:05:39;;;;;;;6.97;4.30;;;;;;;;;;6304428;22;20014;-63
2023/03/19 07:08:10;;;;;;;10.32;3.95;;;;;;;;;;6304239;22;20003;-63
2023/03/19 07:10:36;;;;;;;9.10;4.20;;;;;;;;;;6304653;22;20003;-67
2023/03/19 07:13:03;;;;;;;34.08;6.72;;;;;;;;;;6304383;22;20428;-68
2023/03/19 07:15:30;;;;;;;8.30;3.78;;;;;;;;;;6304842;22;20003;-61
2023/03/19 07:17:56;;;;;;;7.40;4.00;;;;;;;;;;6304816;22;20007;-62
2023/03/19 07:20:22;;;;;;;7.10;4.20;;;;;;;;;;6305376;22;20045;-63
2023/03/19 07:22:50;;;;;;;7.15;3.95;;;;;;;;;;6304990;22;20003;-63
2023/03/19 07:25:16;;;;;;;7.60;3.60;;;;;;;;;;6304720;22;20010;-62
2023/03/19 07:27:42;;;;;;;7.00;3.75;;;;;;;;;;6305284;22;20013;-62
2023/03/19 07:30:08;;;;;;;8.10;4.15;;;;;;;;;;6305040;22;20088;-66
2023/03/19 07:32:34;;;;;;;9.07;4.63;;;;;;;;;;6304617;22;20704;-62
2023/03/19 07:35:01;;;;;;;8.88;3.88;;;;;;;;;;6304355;22;20370;-61
2023/03/19 07:37:27;;;;;;;8.02;4.07;;;;;;;;;;6302976;22;19999;-63
2023/03/19 07:39:53;;;;;;;10.18;4.00;;;;;;;;;;6305158;22;20006;-63
2023/03/19 07:42:19;;;;;;;7.95;4.28;;;;;;;;;;6304779;22;19999;-63
2023/03/19 07:44:45;;;;;;;8.57;4.55;;;;;;;;;;6304955;22;20010;-64
2023/03/19 07:47:11;;;;;;;6.65;3.92;;;;;;;;;;6304710;22;20003;-63
2023/03/19 07:49:37;;;;;;;7.72;3.75;;;;;;;;;;6304419;22;20023;-64
2023/03/19 07:52:03;;;;;;;8.85;3.78;;;;;;;;;;6303575;22;20007;-64
2023/03/19 07:54:30;;;;;;;8.90;4.13;;;;;;;;;;6303823;22;20032;-64
2023/03/19 07:56:56;;;;;;;9.27;4.35;;;;;;;;;;6304384;22;20049;-62
2023/03/19 07:59:22;;;;;;;7.93;3.88;;;;;;;;;;6304336;22;20010;-76
2023/03/19 08:01:48;;;;;;;8.30;3.88;;;;;;;;;;6303847;22;20010;-63
2023/03/19 08:04:15;;;;;;;8.02;3.63;;;;;;;;;;6303234;22;20031;-64
2023/03/19 08:06:41;;;;;;;8.30;4.07;;;;;;;;;;6304276;22;20009;-71
2023/03/19 08:09:08;;;;;;;7.00;3.97;;;;;;;;;;6304404;22;19995;-63
2023/03/19 08:11:34;;;;;;;9.80;4.47;;;;;;;;;;6302632;22;20416;-63
2023/03/19 08:14:00;;;;;;;6.82;4.18;;;;;;;;;;6303547;22;20007;-68
2023/03/19 08:16:26;;;;;;;8.02;4.35;;;;;;;;;;6304151;22;19999;-64
2023/03/19 08:18:52;;;;;;;5.63;3.60;;;;;;;;;;6304145;22;20007;-63
2023/03/19 08:21:18;;;;;;;8.93;4.20;;;;;;;;;;6303643;22;19995;-63
2023/03/19 08:23:45;;;;;;;7.80;4.00;;;;;;;;;;6303641;22;20078;-63
2023/03/19 08:26:11;;;;;;;9.27;4.38;;;;;;;;;;6304148;22;19999;-64
2023/03/19 08:28:37;;;;;;;8.75;3.95;;;;;;;;;;6303915;22;20000;-65
2023/03/19 08:31:13;;;;;;;8.23;4.50;;;;;;;;;;6304178;22;20078;-63
2023/03/19 08:33:40;;;;;;;12.13;5.28;;;;;;;;;;6304101;22;20014;-65
2023/03/19 08:36:07;;;;;;;10.55;4.93;;;;;;;;;;6304204;22;20082;-62
2023/03/19 08:38:33;;;;;;;12.85;5.75;;;;;;;;;;6303894;22;20439;-62
2023/03/19 08:41:02;;;;;;;9.90;4.72;;;;;;;;;;6304161;22;20056;-62
2023/03/19 08:43:30;;;;;;;12.95;5.22;;;;;;;;;;6305309;22;20007;-63
2023/03/19 08:45:56;;;;;;;14.00;5.55;;;;;;;;;;6306463;22;20003;-73
2023/03/19 08:48:22;;;;;;;8.93;4.32;;;;;;;;;;6305363;22;20069;-73
2023/03/19 08:50:52;;;;;;;10.32;5.38;;;;;;;;;;6305805;22;20007;-64
2023/03/19 08:53:18;;;;;;;10.55;4.55;;;;;;;;;;6305958;22;20038;-62
2023/03/19 08:55:44;;;;;;;8.98;4.70;;;;;;;;;;6305718;22;20006;-63
2023/03/19 08:58:10;;;;;;;8.40;4.85;;;;;;;;;;6305559;22;20081;-62
2023/03/19 09:00:37;;;;;;;8.38;5.43;;;;;;;;;;6305491;22;20006;-72
2023/03/19 09:03:03;;;;;;;9.23;4.60;;;;;;;;;;6305681;22;19999;-64
2023/03/19 09:05:29;;;;;;;6.95;4.63;;;;;;;;;;6306074;22;20328;-62
2023/03/19 09:07:55;;;;;;;10.20;5.05;;;;;;;;;;6306082;22;20029;-75
2023/03/19 09:10:21;;;;;;;10.15;5.38;;;;;;;;;;6305631;22;20052;-62
2023/03/19 09:12:47;;;;;;;9.02;5.60;;;;;;;;;;6305193;22;20006;-62
2023/03/19 09:15:13;;;;;;;11.35;5.78;;;;;;;;;;6305993;22;20010;-67
2023/03/19 09:17:39;;;;;;;10.95;5.53;;;;;;;;;;6305899;22;20004;-75
2023/03/19 09:20:06;;;;;;;17.45;8.98;;;;;;;;;;6305624;22;19999;-64
2023/03/19 09:22:32;;;;;;;10.90;5.70;;;;;;;;;;6305481;22;20003;-64
2023/03/19 09:24:58;;;;;;;12.75;6.35;;;;;;;;;;6305984;22;20094;-64
2023/03/19 09:27:24;;;;;;;11.90;6.35;;;;;;;;;;6305374;22;20003;-73
2023/03/19 09:29:50;;;;;;;10.23;5.68;;;;;;;;;;6305692;22;19999;-72
2023/03/19 09:32:16;;;;;;;23.58;12.75;;;;;;;;;;6305759;22;20006;-73
2023/03/19 09:34:42;;;;;;;19.25;9.75;;;;;;;;;;6305858;22;20034;-73
2023/03/19 09:37:10;;;;;;;13.88;7.05;;;;;;;;;;6305947;22;20424;-71
2023/03/19 09:39:36;;;;;;;9.15;4.72;;;;;;;;;;6305985;22;19999;-63
2023/03/19 09:42:03;;;;;;;18.17;10.25;;;;;;;;;;6306190;22;20027;-64
2023/03/19 09:44:30;;;;;;;10.45;5.10;;;;;;;;;;6305964;22;20003;-64
2023/03/19 09:47:24;;;;;;;11.40;5.75;;;;;;;;;;6305711;22;19999;-64
2023/03/19 09:49:51;;;;;;;18.58;10.55;;;;;;;;;;6301419;22;20023;-65
2023/03/19 09:52:41;;;;;;;10.70;5.28;;;;;;;;;;6305876;22;20007;-70
2023/03/19 09:55:15;;;;;;;9.20;5.40;;;;;;;;;;6180927;23;20013;-65
2023/03/19 09:57:41;;;;;;;8.80;5.20;;;;;;;;;;6180816;23;20413;-64
2023/03/19 10:00:28;;;;;;;12.18;5.88;;;;;;;;;;6180908;23;20005;-63
2023/03/19 10:02:58;;;;;;;9.63;4.75;;;;;;;;;;6180518;23;20113;-66
2023/03/19 10:05:27;;;;;;;10.90;5.80;;;;;;;;;;6155448;23;20001;-64
2023/03/19 10:08:11;;;;;;;10.38;5.30;;;;;;;;;;6180962;23;20001;-65
2023/03/19 10:10:52;;;;;;;9.45;5.55;;;;;;;;;;6179224;23;20005;-67
2023/03/19 10:13:28;;;;;;;10.18;5.05;;;;;;;;;;6180232;23;20008;-62
2023/03/19 10:15:55;;;;;;;7.85;4.65;;;;;;;;;;6180883;23;20008;-61
2023/03/19 10:18:21;;;;;;;8.93;4.88;;;;;;;;;;6180091;23;20016;-64
2023/03/19 10:21:07;;;;;;;8.32;4.55;;;;;;;;;;6180595;23;20013;-66
2023/03/19 10:23:37;;;;;;;9.32;4.70;;;;;;;;;;6180615;23;20023;-63
2023/03/19 10:26:04;;;;;;;10.70;5.15;;;;;;;;;;6180324;23;20040;-65
2023/03/19 10:28:30;;;;;;;8.35;5.00;;;;;;;;;;6180519;23;20032;-70
2023/03/19 10:31:15;;;;;;;10.23;6.30;;;;;;;;;;6182337;22;20491;-67
2023/03/19 10:33:43;;;;;;;9.35;5.70;;;;;;;;;;6305053;22;19999;-66
2023/03/19 10:36:10;;;;;;;12.50;7.10;;;;;;;;;;6305527;22;20004;-62
2023/03/19 10:38:40;;;;;;;13.93;6.03;;;;;;;;;;6305496;22;20025;-66
2023/03/19 10:41:15;;;;;;;9.88;5.18;;;;;;;;;;6305252;22;20004;-63
2023/03/19 10:43:42;;;;;;;8.82;4.95;;;;;;;;;;6305247;22;20052;-64
2023/03/19 10:46:12;;;;;;;9.25;4.60;;;;;;;;;;6305128;22;20003;-63
2023/03/19 10:48:43;;;;;;;9.55;5.15;;;;;;;;;;6303966;22;20015;-66
2023/03/19 10:51:10;;;;;;;8.80;4.95;;;;;;;;;;6304841;22;20038;-64
2023/03/19 10:53:37;;;;;;;10.02;4.60;;;;;;;;;;6304957;22;20011;-67
2023/03/19 10:56:07;;;;;;;12.20;5.20;;;;;;;;;;6305076;22;20427;-69
2023/03/19 10:58:35;;;;;;;9.70;5.05;;;;;;;;;;6304811;22;20003;-64
2023/03/19 11:01:04;;;;;;;10.00;5.55;;;;;;;;;;6304957;22;20048;-64
2023/03/19 11:03:33;;;;;;;9.27;4.82;;;;;;;;;;6304432;22;20003;-66
2023/03/19 11:06:14;;;;;;;7.55;4.45;;;;;;;;;;6304544;22;19995;-64
2023/03/19 11:08:41;;;;;;;7.07;4.37;;;;;;;;;;6305120;22;19999;-63
2023/03/19 11:11:22;;;;;;;8.80;4.55;;;;;;;;;;6304954;22;19999;-64
2023/03/19 11:13:49;;;;;;;10.68;4.03;;;;;;;;;;6304563;22;20435;-67
2023/03/19 11:16:15;;;;;;;9.98;4.57;;;;;;;;;;6305004;22;20009;-64
2023/03/19 11:18:42;;;;;;;10.13;4.38;;;;;;;;;;6304222;22;20008;-64
2023/03/19 11:21:20;;;;;;;9.60;4.70;;;;;;;;;;6304947;22;20172;-63
2023/03/19 11:23:51;;;;;;;12.98;6.90;;;;;;;;;;6303705;22;20002;-63
2023/03/19 11:26:27;;;;;;;7.63;4.60;;;;;;;;;;6304683;22;19999;-63
2023/03/19 11:28:54;;;;;;;9.73;5.07;;;;;;;;;;6304860;22;20261;-69
2023/03/19 11:31:28;;;;;;;9.63;5.60;;;;;;;;;;6304739;22;20038;-73
2023/03/19 11:34:00;;;;;;;10.32;5.32;;;;;;;;;;6304150;22;20014;-65
2023/03/19 11:36:45;;;;;;;11.02;6.05;;;;;;;;;;6304931;22;20006;-64
2023/03/19 11:39:21;;;;;;;12.70;6.30;;;;;;;;;;6304404;22;20008;-66
2023/03/19 11:41:56;;;;;;;7.20;4.40;;;;;;;;;;6304619;22;20010;-64
2023/03/19 11:44:41;;;;;;;10.45;5.18;;;;;;;;;;6304566;22;20431;-63
2023/03/19 11:47:12;;;;;;;9.25;4.90;;;;;;;;;;6304360;22;20332;-63
2023/03/19 11:49:57;;;;;;;7.47;4.78;;;;;;;;;;6304132;22;20011;-63
2023/03/19 11:52:47;;;;;;;6.97;4.40;;;;;;;;;;6304254;22;19999;-68
2023/03/19 11:55:16;;;;;;;17.42;9.48;;;;;;;;;;6304099;22;20011;-64
2023/03/19 11:57:45;;;;;;;10.40;5.15;;;;;;;;;;6304484;22;20022;-64
2023/03/19 12:00:14;;;;;;;14.32;7.85;;;;;;;;;;6304721;22;20366;-68
2023/03/19 12:02:43;;;;;;;8.77;5.15;;;;;;;;;;6303957;22;20089;-63
2023/03/19 12:05:32;;;;;;;18.85;9.68;;;;;;;;;;6303924;22;20003;-65
2023/03/19 12:08:19;;;;;;;9.70;6.30;;;;;;;;;;6288140;22;20018;-65
2023/03/19 12:11:08;;;;;;;7.68;4.57;;;;;;;;;;6154835;23;20008;-66
2023/03/19 12:13:43;;;;;;;8.20;4.97;;;;;;;;;;6164534;23;20024;-73
2023/03/19 12:16:09;;;;;;;9.57;4.47;;;;;;;;;;6179172;23;20009;-63
2023/03/19 12:18:44;;;;;;;12.88;5.30;;;;;;;;;;6181468;23;20013;-63
2023/03/19 12:21:28;;;;;;;9.93;5.10;;;;;;;;;;6181722;23;20009;-70
2023/03/19 12:24:01;;;;;;;7.30;4.53;;;;;;;;;;6181673;23;20100;-63
2023/03/19 12:26:49;;;;;;;8.35;4.63;;;;;;;;;;6181719;23;20032;-63
2023/03/19 12:29:32;;;;;;;7.35;4.72;;;;;;;;;;6181431;23;20473;-63
2023/03/19 12:32:04;;;;;;;8.10;4.50;;;;;;;;;;6181710;23;20009;-64
2023/03/19 12:34:43;;;;;;;9.43;4.97;;;;;;;;;;6181289;23;20841;-64
2023/03/19 12:37:24;;;;;;;6.45;4.35;;;;;;;;;;6181884;23;20015;-64
2023/03/19 12:40:02;;;;;;;11.35;4.53;;;;;;;;;;6180560;23;20008;-64
2023/03/19 12:42:29;;;;;;;9.95;5.05;;;;;;;;;;6156357;23;20004;-64
2023/03/19 12:44:57;;;;;;;14.13;6.60;;;;;;;;;;6181650;23;20005;-71
2023/03/19 12:47:29;;;;;;;8.52;4.25;;;;;;;;;;6221405;22;20022;-64
2023/03/19 12:50:00;;;;;;;8.50;4.70;;;;;;;;;;6305430;22;20296;-64
2023/03/19 12:52:31;;;;;;;9.13;4.80;;;;;;;;;;6306269;22;20048;-63
2023/03/19 12:55:03;;;;;;;10.80;5.03;;;;;;;;;;6305902;22;20018;-64
2023/03/19 12:57:38;;;;;;;9.70;4.72;;;;;;;;;;6306309;22;19999;-63
2023/03/19 13:00:13;;;;;;;9.05;4.40;;;;;;;;;;6305814;22;20013;-63
2023/03/19 13:02:47;;;;;;;7.72;4.63;;;;;;;;;;6305321;22;20096;-68
2023/03/19 13:05:34;;;;;;;10.80;5.35;;;;;;;;;;6305984;22;20074;-63
2023/03/19 13:08:19;;;;;;;11.18;4.95;;;;;;;;;;6306217;22;20011;-63
2023/03/19 13:10:45;;;;;;;8.65;5.00;;;;;;;;;;6306055;22;20419;-64
2023/03/19 13:13:30;;;;;;;9.23;5.43;;;;;;;;;;6305814;22;20003;-64
2023/03/19 13:15:59;;;;;;;9.95;5.32;;;;;;;;;;6305506;22;20003;-67
2023/03/19 13:18:25;;;;;;;10.10;5.80;;;;;;;;;;6277538;22;20086;-63
2023/03/19 13:21:10;;;;;;;11.07;5.00;;;;;;;;;;6305895;22;20382;-72
2023/03/19 13:23:38;;;;;;;10.68;5.63;;;;;;;;;;6305899;22;20411;-63
2023/03/19 13:26:06;;;;;;;11.77;6.45;;;;;;;;;;6305663;22;20034;-64
2023/03/19 13:28:34;;;;;;;11.93;6.00;;;;;;;;;;6305523;22;20003;-63
2023/03/19 13:31:02;;;;;;;8.95;5.30;;;;;;;;;;6306273;22;20433;-63
2023/03/19 13:33:28;;;;;;;10.45;5.00;;;;;;;;;;6305039;22;20057;-64
2023/03/19 13:35:55;;;;;;;16.05;9.25;;;;;;;;;;6305916;22;20007;-63
2023/03/19 13:38:21;;;;;;;9.20;5.75;;;;;;;;;;6304958;22;20305;-64
2023/03/19 13:40:51;;;;;;;10.40;5.88;;;;;;;;;;6304460;22;20018;-63
2023/03/19 13:43:29;;;;;;;13.68;7.80;;;;;;;;;;6305467;22;19999;-64
2023/03/19 13:46:11;;;;;;;15.70;8.82;;;;;;;;;;6305596;22;20371;-65
2023/03/19 13:48:49;;;;;;;11.77;6.25;;;;;;;;;;6305345;22;20136;-72
2023/03/19 13:51:15;;;;;;;9.77;5.90;;;;;;;;;;6305639;22;20015;-64
2023/03/19 13:54:00;;;;;;;9.77;6.50;;;;;;;;;;6305909;22;20011;-65
2023/03/19 13:56:27;;;;;;;13.82;6.65;;;;;;;;;;6305736;22;19999;-73
2023/03/19 13:59:14;;;;;;;14.38;8.75;;;;;;;;;;6305733;22;20371;-64
2023/03/19 14:01:43;;;;;;;12.95;8.35;;;;;;;;;;6180727;23;20005;-65
2023/03/19 14:04:28;;;;;;;13.45;8.02;;;;;;;;;;6180571;23;20159;-63
2023/03/19 14:06:57;;;;;;;9.88;5.88;;;;;;;;;;6180918;23;20463;-63
2023/03/19 14:09:28;;;;;;;10.45;6.65;;;;;;;;;;6180745;23;20009;-63
2023/03/19 14:11:55;;;;;;;11.20;5.60;;;;;;;;;;6179014;23;20505;-64
2023/03/19 14:14:23;;;;;;;11.77;5.80;;;;;;;;;;6179485;23;20017;-68
2023/03/19 14:16:51;;;;;;;10.65;5.75;;;;;;;;;;6180763;23;20005;-76
2023/03/19 14:19:19;;;;;;;12.63;6.40;;;;;;;;;;6180240;23;20099;-65
2023/03/19 14:21:53;;;;;;;9.38;5.82;;;;;;;;;;6178843;23;20012;-63
2023/03/19 14:24:21;;;;;;;9.55;6.03;;;;;;;;;;6180544;23;20005;-63
2023/03/19 14:26:47;;;;;;;9.82;6.30;;;;;;;;;;6180863;23;20071;-63
2023/03/19 14:29:14;;;;;;;11.65;6.28;;;;;;;;;;6180407;23;20076;-81
2023/03/19 14:31:50;;;;;;;12.40;6.15;;;;;;;;;;6178741;23;20005;-62
2023/03/19 14:34:22;;;;;;;12.57;6.50;;;;;;;;;;6180401;23;20448;-63
2023/03/19 14:36:51;;;;;;;13.13;7.00;;;;;;;;;;6180499;23;20016;-63
2023/03/19 14:39:22;;;;;;;11.65;7.30;;;;;;;;;;6269748;22;20083;-65
2023/03/19 14:41:50;;;;;;;13.02;7.35;;;;;;;;;;6304886;22;20002;-63
2023/03/19 14:44:25;;;;;;;14.43;8.57;;;;;;;;;;6305031;22;20074;-64
2023/03/19 14:47:24;;;;;;;12.93;7.57;;;;;;;;;;6305086;22;20319;-67
2023/03/19 14:49:50;;;;;;;13.82;6.93;;;;;;;;;;6179699;23;20104;-66
2023/03/19 14:52:25;;;;;;;12.95;7.93;;;;;;;;;;6179558;23;20438;-67
2023/03/19 14:54:56;;;;;;;12.52;7.05;;;;;;;;;;6179822;23;20020;-66
2023/03/19 14:57:26;;;;;;;10.82;7.07;;;;;;;;;;6180115;23;20048;-70
2023/03/19 14:59:53;;;;;;;12.70;7.63;;;;;;;;;;6179867;23;20497;-68
2023/03/19 15:02:31;;;;;;;13.13;7.80;;;;;;;;;;6180041;23;20033;-63
2023/03/19 15:04:58;;;;;;;10.75;6.60;;;;;;;;;;6179148;23;20453;-62
2023/03/19 15:07:30;;;;;;;11.27;7.03;;;;;;;;;;6179748;23;20013;-70
2023/03/19 15:09:59;;;;;;;13.50;6.50;;;;;;;;;;6180209;23;20552;-65
2023/03/19 15:12:32;;;;;;;11.43;7.18;;;;;;;;;;6180287;23;20062;-62
2023/03/19 15:14:58;;;;;;;11.38;6.88;;;;;;;;;;6180263;23;20013;-64
2023/03/19 15:17:27;;;;;;;13.98;7.35;;;;;;;;;;6179652;23;20095;-63
2023/03/19 15:19:54;;;;;;;13.15;7.43;;;;;;;;;;6154427;23;20095;-76
2023/03/19 15:22:21;;;;;;;13.05;7.43;;;;;;;;;;6180084;23;20005;-73
2023/03/19 15:24:48;;;;;;;13.32;7.35;;;;;;;;;;6210599;22;20014;-78
2023/03/19 15:27:24;;;;;;;11.95;6.95;;;;;;;;;;6304740;22;20012;-67
2023/03/19 15:29:51;;;;;;;15.20;7.43;;;;;;;;;;6303616;22;20010;-66
2023/03/19 15:32:30;;;;;;;11.57;7.05;;;;;;;;;;6275834;22;20004;-64
2023/03/19 15:34:57;;;;;;;13.02;6.68;;;;;;;;;;6303030;22;20007;-72
2023/03/19 15:37:23;;;;;;;13.98;6.90;;;;;;;;;;6304551;22;20396;-75
2023/03/19 15:39:51;;;;;;;9.50;6.22;;;;;;;;;;6304623;22;20082;-63
2023/03/19 15:42:19;;;;;;;10.73;5.90;;;;;;;;;;6304076;22;19999;-63
2023/03/19 15:44:56;;;;;;;12.93;6.50;;;;;;;;;;6275481;22;20380;-64
2023/03/19 15:47:27;;;;;;;13.88;7.22;;;;;;;;;;6303123;22;20003;-76
2023/03/19 15:49:58;;;;;;;10.82;6.97;;;;;;;;;;6303716;22;20037;-70
2023/03/19 15:52:25;;;;;;;13.00;6.47;;;;;;;;;;6305465;22;20011;-77
2023/03/19 15:54:53;;;;;;;11.13;6.40;;;;;;;;;;6304574;22;20379;-66
2023/03/19 15:57:19;;;;;;;13.82;6.72;;;;;;;;;;6304504;22;19999;-69
2023/03/19 15:59:46;;;;;;;14.50;6.75;;;;;;;;;;6304281;22;20363;-76
2023/03/19 16:02:26;;;;;;;10.40;6.47;;;;;;;;;;6304647;22;20011;-63
2023/03/19 16:04:53;;;;;;;13.88;7.38;;;;;;;;;;6303661;22;20014;-67
2023/03/19 16:07:32;;;;;;;10.35;6.70;;;;;;;;;;6304508;22;20014;-63
2023/03/19 16:09:58;;;;;;;11.05;6.45;;;;;;;;;;6303299;22;20082;-63
2023/03/19 16:12:44;;;;;;;12.38;7.00;;;;;;;;;;6304499;22;20003;-63
2023/03/19 16:15:27;;;;;;;15.32;7.10;;;;;;;;;;6304140;22;20011;-66
2023/03/19 16:17:53;;;;;;;18.05;7.78;;;;;;;;;;6304322;22;20011;-63
2023/03/19 16:20:20;;;;;;;13.05;7.97;;;;;;;;;;6276231;22;20057;-62
2023/03/19 16:22:53;;;;;;;27.05;15.43;;;;;;;;;;6303831;22;20383;-63
2023/03/19 16:25:20;;;;;;;27.50;13.90;;;;;;;;;;6303759;22;20061;-64
2023/03/19 16:27:47;;;;;;;27.73;14.43;;;;;;;;;;6304590;22;20003;-71
2023/03/19 16:30:16;;;;;;;25.30;12.90;;;;;;;;;;6303840;22;20007;-75
2023/03/19 16:32:42;;;;;;;18.35;10.93;;;;;;;;;;6302487;22;20014;-65
2023/03/19 16:35:18;;;;;;;23.55;11.38;;;;;;;;;;6303378;22;20432;-62
2023/03/19 16:37:46;;;;;;;19.60;11.65;;;;;;;;;;6304180;22;19999;-60
2023/03/19 16:40:12;;;;;;;23.35;13.43;;;;;;;;;;6304668;22;20007;-74
2023/03/19 16:42:41;;;;;;;23.88;14.32;;;;;;;;;;6304375;22;20000;-61
2023/03/19 16:45:16;;;;;;;28.73;16.52;;;;;;;;;;6304361;22;20030;-66
2023/03/19 16:47:43;;;;;;;32.45;18.77;;;;;;;;;;6303934;22;20019;-65
2023/03/19 16:50:10;;;;;;;38.38;21.50;;;;;;;;;;6303910;22;20011;-66
2023/03/19 16:52:38;;;;;;;42.75;23.27;;;;;;;;;;6304190;22;20029;-62
2023/03/19 16:55:04;;;;;;;45.00;26.08;;;;;;;;;;6276311;22;20023;-62
2023/03/19 16:57:30;;;;;;;48.38;27.33;;;;;;;;;;6304452;22;20391;-62
2023/03/19 16:59:57;;;;;;;51.72;28.85;;;;;;;;;;6303927;22;20004;-62
2023/03/19 17:02:23;;;;;;;55.35;30.65;;;;;;;;;;6304052;22;19996;-62
2023/03/19 17:04:49;;;;;;;56.22;31.10;;;;;;;;;;6305578;22;19999;-62
2023/03/19 17:07:15;;;;;;;51.97;29.77;;;;;;;;;;6306423;22;20075;-62
2023/03/19 17:09:41;;;;;;;53.58;29.13;;;;;;;;;;6305150;22;19995;-63
2023/03/19 17:12:12;;;;;;;53.25;29.45;;;;;;;;;;6305487;22;20011;-70
2023/03/19 17:14:38;;;;;;;62.80;34.83;;;;;;;;;;6305849;22;20022;-61
2023/03/19 17:17:11;;;;;;;61.17;34.88;;;;;;;;;;6278310;22;20003;-62
2023/03/19 17:19:37;;;;;;;71.57;39.55;;;;;;;;;;6305971;22;20006;-62
2023/03/19 17:22:03;;;;;;;93.20;45.97;;;;;;;;;;6278447;22;20580;-69
2023/03/19 17:24:30;;;;;;;96.25;46.60;;;;;;;;;;6305989;22;20007;-70
2023/03/19 17:26:57;;;;;;;76.80;41.25;;;;;;;;;;6306054;22;20034;-63
2023/03/19 17:29:24;;;;;;;81.32;43.03;;;;;;;;;;6305298;22;20052;-63
2023/03/19 17:31:52;;;;;;;80.75;43.60;;;;;;;;;;6304738;22;20003;-63
2023/03/19 17:34:25;;;;;;;80.85;43.72;;;;;;;;;;6305834;22;20056;-62
2023/03/19 17:36:53;;;;;;;76.53;42.65;;;;;;;;;;6305667;22;20003;-62
2023/03/19 17:39:19;;;;;;;78.75;42.45;;;;;;;;;;6305794;22;19999;-63
2023/03/19 17:41:45;;;;;;;72.70;40.58;;;;;;;;;;6305402;22;20086;-62
2023/03/19 17:44:13;;;;;;;73.75;40.45;;;;;;;;;;6305746;22;20435;-63
2023/03/19 17:46:40;;;;;;;71.80;38.75;;;;;;;;;;6305694;22;20412;-66
2023/03/19 17:49:11;;;;;;;80.40;41.13;;;;;;;;;;6304766;22;20019;-63
2023/03/19 17:51:37;;;;;;;59.70;32.15;;;;;;;;;;6305856;22;20056;-66
2023/03/19 17:54:06;;;;;;;81.45;41.97;;;;;;;;;;6305661;22;20011;-61
2023/03/19 17:56:32;;;;;;;83.57;44.03;;;;;;;;;;6278078;22;20008;-62
2023/03/19 17:58:58;;;;;;;77.53;41.60;;;;;;;;;;6305440;22;20003;-71
2023/03/19 18:01:26;;;;;;;79.72;41.70;;;;;;;;;;6277979;22;20449;-65
2023/03/19 18:03:54;;;;;;;74.18;41.08;;;;;;;;;;6305686;22;20023;-66
2023/03/19 18:06:21;;;;;;;72.78;39.20;;;;;;;;;;6305619;22;20010;-63
2023/03/19 18:08:47;;;;;;;77.05;39.63;;;;;;;;;;6305564;22;20367;-63
2023/03/19 18:11:13;;;;;;;79.75;41.17;;;;;;;;;;6306345;22;20059;-69
2023/03/19 18:13:39;;;;;;;85.53;42.88;;;;;;;;;;6305779;22;20332;-69
2023/03/19 18:16:12;;;;;;;92.68;45.05;;;;;;;;;;6305140;22;19999;-69
2023/03/19 18:18:38;;;;;;;91.50;44.58;;;;;;;;;;6305242;22;20011;-63
2023/03/19 18:21:04;;;;;;;87.88;42.33;;;;;;;;;;6305479;22;20323;-63
2023/03/19 18:23:30;;;;;;;84.55;42.28;;;;;;;;;;6305243;22;19995;-62
2023/03/19 18:25:56;;;;;;;73.05;38.63;;;;;;;;;;6305468;22;20006;-63
2023/03/19 18:28:23;;;;;;;78.47;39.40;;;;;;;;;;6305611;22;20027;-70
2023/03/19 18:30:49;;;;;;;68.85;36.25;;;;;;;;;;6305154;22;20452;-71
2023/03/19 18:33:25;;;;;;;66.95;33.58;;;;;;;;;;6305430;22;20124;-63
2023/03/19 18:35:52;;;;;;;59.05;31.63;;;;;;;;;;6304988;22;20549;-66
2023/03/19 18:38:19;;;;;;;57.38;31.27;;;;;;;;;;6305577;22;20003;-65
2023/03/19 18:40:46;;;;;;;50.92;28.55;;;;;;;;;;6305327;22;19996;-63
2023/03/19 18:43:13;;;;;;;52.45;28.35;;;;;;;;;;6304913;22;20056;-64
2023/03/19 18:45:39;;;;;;;47.22;25.92;;;;;;;;;;6304625;22;20010;-63
2023/03/19 18:48:26;;;;;;;47.80;26.58;;;;;;;;;;6304767;22;20078;-64
2023/03/19 18:50:53;;;;;;;49.05;26.95;;;;;;;;;;6305011;22;20110;-73
2023/03/19 18:53:19;;;;;;;51.08;26.67;;;;;;;;;;6305142;22;20004;-70
2023/03/19 18:55:46;;;;;;;53.10;27.48;;;;;;;;;;6305185;22;20003;-74
2023/03/19 18:58:17;;;;;;;56.25;29.67;;;;;;;;;;6305186;22;20045;-63
2023/03/19 19:00:43;;;;;;;56.25;29.67;;;;;;;;;;6304959;22;20010;-69
2023/03/19 19:03:12;;;;;;;50.17;27.85;;;;;;;;;;6276551;22;20113;-63
2023/03/19 19:05:38;;;;;;;46.38;25.50;;;;;;;;;;6303728;22;20011;-67
2023/03/19 19:08:07;;;;;;;45.63;24.98;;;;;;;;;;6304381;22;20003;-64
2023/03/19 19:10:34;;;;;;;54.95;26.10;;;;;;;;;;6304885;22;20010;-71
2023/03/19 19:13:01;;;;;;;49.72;23.42;;;;;;;;;;6304802;22;20007;-72
2023/03/19 19:15:34;;;;;;;43.80;21.95;;;;;;;;;;6304871;22;20072;-64
2023/03/19 19:18:00;;;;;;;43.50;22.27;;;;;;;;;;6304860;22;20305;-71
2023/03/19 19:20:28;;;;;;;39.03;19.25;;;;;;;;;;6303873;22;20033;-64
2023/03/19 19:22:55;;;;;;;34.58;17.63;;;;;;;;;;6303654;22;20228;-69
2023/03/19 19:25:22;;;;;;;34.25;18.30;;;;;;;;;;6303786;22;20074;-64
2023/03/19 19:27:50;;;;;;;33.35;17.67;;;;;;;;;;6304510;22;20010;-64
2023/03/19 19:30:20;;;;;;;29.17;15.63;;;;;;;;;;6277522;22;20068;-64
2023/03/19 19:32:46;;;;;;;28.08;15.07;;;;;;;;;;6304475;22;20048;-70
2023/03/19 19:35:17;;;;;;;27.60;15.18;;;;;;;;;;6304621;22;20011;-68
2023/03/19 19:37:43;;;;;;;26.60;14.23;;;;;;;;;;6304617;22;20011;-72
2023/03/19 19:40:11;;;;;;;33.42;15.77;;;;;;;;;;6305114;22;20003;-70
2023/03/19 19:42:37;;;;;;;28.92;14.73;;;;;;;;;;6304766;22;20492;-67
2023/03/19 19:45:04;;;;;;;31.35;14.40;;;;;;;;;;6304496;22;19995;-64
2023/03/19 19:47:30;;;;;;;31.58;14.60;;;;;;;;;;6304014;22;20057;-64
2023/03/19 19:49:56;;;;;;;29.52;14.48;;;;;;;;;;6302602;22;20026;-66
2023/03/19 19:52:22;;;;;;;25.63;14.43;;;;;;;;;;6302862;22;20003;-63
2023/03/19 19:54:50;;;;;;;25.35;13.95;;;;;;;;;;6302512;22;20034;-63
2023/03/19 19:57:17;;;;;;;33.15;16.00;;;;;;;;;;6302078;22;20106;-64
2023/03/19 19:59:44;;;;;;;40.88;22.42;;;;;;;;;;6302107;22;19999;-64
2023/03/19 20:02:23;;;;;;;33.10;19.02;;;;;;;;;;6303366;22;19999;-65
2023/03/19 20:04:49;;;;;;;30.90;17.17;;;;;;;;;;6275874;22;20379;-66
2023/03/19 20:07:15;;;;;;;23.55;12.55;;;;;;;;;;6303876;22;20011;-64
2023/03/19 20:09:41;;;;;;;23.67;12.32;;;;;;;;;;6303988;22;20018;-64
2023/03/19 20:12:24;;;;;;;22.42;12.77;;;;;;;;;;6304631;22;20605;-64
2023/03/19 20:14:51;;;;;;;24.45;12.98;;;;;;;;;;6304175;22;20038;-64
2023/03/19 20:17:17;;;;;;;21.25;12.10;;;;;;;;;;6303995;22;20053;-66
2023/03/19 20:19:44;;;;;;;24.90;13.18;;;;;;;;;;6304446;22;20320;-71
2023/03/19 20:22:10;;;;;;;32.28;14.57;;;;;;;;;;6304406;22;20368;-65
2023/03/19 20:24:36;;;;;;;26.70;14.10;;;;;;;;;;6303838;22;20014;-63
2023/03/19 20:27:03;;;;;;;28.42;14.40;;;;;;;;;;6302993;22;20305;-69
2023/03/19 20:29:31;;;;;;;26.77;15.82;;;;;;;;;;6303546;22;19999;-64
2023/03/19 20:31:59;;;;;;;26.20;15.43;;;;;;;;;;6303814;22;20004;-63
2023/03/19 20:34:25;;;;;;;30.35;16.42;;;;;;;;;;6303382;22;20403;-64